Airfield :
LOGIN :

Register | Disclaimer

   EN    FR    IT 

 










Legend :    VFR   Marginal VFR   IFR   Intensive IFR   Very Intensive IFR
Visi :
Ceiling :
>= 8 km
>= 3000ft
5 to 8 km
1000 to 3000 ft
1500m to 5 km
500 to 1000 ft
800 to 1500m
200 to 500 ft
< 800m
< 200 ft
Symbols :   Thunderstorms  Fog  Heavy snow  Heavy precipitations  Wind > 20 kt
SIGMETs :     Misc.  Thunderstorms  Icing  Turbulence  Mountain Waves  Volcanic Ashes







- Airport Elevation : 290 ft
- IATA code : ACI
- Download approach charts


EGJA - Alderney

CURRENT METAR :
  • 141720Z 26013KT 8000 SCT004 18/17 Q1020

EXPIRED METARs :
  • 141650Z 26014KT 8000 BKN004 18/17 Q1020
  • 141620Z 26012KT 9999 SCT004 18/17 Q1020
  • 141550Z 26011KT 9999 SCT005 19/17 Q1020
  • 141520Z 26011KT 9999 FEW040 19/16 Q1020
  • 141450Z 23010KT 9999 FEW008 19/17 Q1020

TAF TAF EGJA
Valid from the 14 at 15:00 until the 14 at 19:00 UTC


141356Z 1415/1419 27011KT 9999 FEW006 BKN025
TEMPO 1415/1419 3000 BR SCT005 BKN015
PROB30
TEMPO 1415/1419 1500 -DZ VCFG BKN001
No reported NOTAMs for that airfield.



MET'MAP, your aeronautical weather chart ! - Copyright ORBIFLY December 2007 - Disclaimer

ORBIFLY MET'MAP TEAM :

Programming & Development : Alexandra Zaïnal
Concept & Development : Baudouin d'Aumeries
Co-Development & Prog : Marc-Olivier Méhu
Technical & hardware support : Manuel Goepfert

Contact : metmap@orbifly.com




SOURCES & CREDITS :

   NOAA